Flight Track Log - Related Links

Times and Time Zones

All times are in EDT time to prevent confusion due to time zone crossing. See the GGN7281 flight status page for this flight to view local times or setup timezone preferences in your user account.


Time Position Orientation Groundspeed Altitude Reporting Facility
EDT Latitude Longitude Course Direction KTS MPH feet Rate Location/Type
Mon 11:24:52 AM 42.7256 -73.8108 182° South 141 162 1,000  Level Boston Center
Mon 11:25:41 AM 42.6881 -73.8128 182° South 172 198 2,000 1,266 Climbing Boston Center
Mon 11:26:41 AM 42.6789 -73.8775 259° West 181 208 3,300 1,233 Climbing Boston Center
Mon 11:28:07 AM 42.6903 -73.9625 280° West 180 207 5,000 1,233 Climbing Boston Center
Mon 11:29:07 AM 42.7103 -74.0253 293° West 180 207 6,300 1,091 Climbing Boston Center
Mon 11:30:19 AM 42.7219 -74.0906 284° West 185 213 7,400 1,045 Climbing Boston Center
Mon 11:31:19 AM 42.7394 -74.1786 285° West 185 213 8,600 1,150 Climbing Boston Center
Mon 11:32:19 AM 42.7547 -74.2556 285° West 190 219 9,700 950 Climbing Boston Center
Mon 11:33:19 AM 42.7578 -74.3292 273° West 203 234 10,500 700 Climbing Boston Center
Mon 11:34:19 AM 42.7631 -74.3942 276° West 213 245 11,100 900 Climbing Boston Center
Mon 11:35:19 AM 42.7717 -74.4878 277° West 218 251 12,300 1,100 Climbing Boston Center
Mon 11:36:19 AM 42.7722 -74.5756 271° West 218 251 13,300 850 Climbing Boston Center
Mon 11:37:19 AM 42.7789 -74.6550 277° West 223 257 14,000 850 Climbing Boston Center
Mon 11:38:19 AM 42.7792 -74.7511 270° West 223 257 15,000 850 Climbing Boston Center
Mon 11:39:19 AM 42.7817 -74.8278 273° West 228 262 15,700 700 Climbing Boston Center
Mon 11:40:19 AM 42.7886 -74.8989 278° West 234 269 16,400 950 Climbing Boston Center
Mon 11:41:19 AM 42.7947 -75.0036 275° West 234 269 17,600 1,000 Climbing Boston Center
Mon 11:42:19 AM 42.8011 -75.0889 276° West 234 269 18,400 750 Climbing Boston Center
Mon 11:43:19 AM 42.8008 -75.1794 270° West 234 269 19,100 650 Climbing Boston Center
Mon 11:44:19 AM 42.8092 -75.2675 277° West 234 269 19,700 400 Climbing Boston Center
Mon 11:45:19 AM 42.8111 -75.3583 272° West 234 269 19,900 100 Climbing Boston Center
Mon 11:46:19 AM 42.8189 -75.4547 276° West 244 281 19,900  Level Boston Center
Mon 11:47:19 AM 42.8225 -75.5514 273° West 254 292 19,900  Level Boston Center
Mon 11:48:19 AM 42.8261 -75.6506 273° West 259 298 19,900 50 Level Boston Center
Mon 11:49:19 AM 42.8294 -75.7500 273° West 259 298 20,000 50 Climbing Boston Center
Mon 11:50:19 AM 42.8350 -75.8464 275° West 259 298 20,000 -50 Level Boston Center
Mon 11:51:19 AM 42.8403 -75.9458 274° West 259 298 19,900 -50 Descending Boston Center
Mon 11:52:19 AM 42.8456 -76.0425 274° West 259 298 19,900 50 Level Boston Center
Mon 11:53:19 AM 42.8486 -76.1447 272° West 259 298 20,000 35 Climbing Boston Center
Mon 11:55:12 AM 42.8500 -76.3167 271° West 270 311 20,000  Level Toronto Center
Mon 11:56:12 AM 42.8500 -76.4000 270° West 260 299 20,000  Level Toronto Center
Mon 11:57:12 AM 42.8500 -76.5000 270° West 260 299 20,000  Level Toronto Center
Mon 11:58:12 AM 42.8500 -76.6167 270° West 260 299 20,000  Level Toronto Center
Mon 11:59:12 AM 42.8667 -76.7000 285° West 270 311 20,000  Level Toronto Center
Mon 12:00:12 PM 42.8667 -76.8167 270° West 270 311 20,000  Level Toronto Center
Mon 12:01:35 PM 42.8811 -76.9703 277° West 271 312 20,000  Level Cleveland Center
Mon 12:02:35 PM 42.8842 -77.0722 272° West 271 312 20,000 -50 Level Cleveland Center
Mon 12:03:35 PM 42.8892 -77.1711 274° West 271 312 19,900  Descending Cleveland Center
Mon 12:04:35 PM 42.8922 -77.2703 272° West 271 312 20,000  Climbing Cleveland Center
Mon 12:05:35 PM 42.8931 -77.3808 271° West 271 312 19,900  Descending Cleveland Center
Mon 12:06:35 PM 42.9125 -77.4761 286° West 271 312 20,000 50 Climbing Cleveland Center
Mon 12:07:35 PM 42.9317 -77.5744 285° West 271 312 20,000  Level Cleveland Center
Mon 12:08:35 PM 42.9528 -77.6700 287° West 271 312 20,000 50 Level Cleveland Center
Mon 12:09:35 PM 42.9742 -77.7656 287° West 271 312 20,100 -200 Climbing Cleveland Center
Mon 12:10:35 PM 42.9953 -77.8639 286° West 271 312 19,600 -750 Descending Cleveland Center
Mon 12:11:35 PM 43.0183 -77.9650 287° West 271 312 18,600 -900 Descending Cleveland Center
Mon 12:12:35 PM 43.0372 -78.0636 285° West 277 319 17,800 -750 Descending Cleveland Center
Mon 12:13:35 PM 43.0603 -78.1650 287° West 277 319 17,100 -650 Descending Cleveland Center
Mon 12:14:35 PM 43.0789 -78.2667 284° West 277 319 16,500 -650 Descending Cleveland Center
Mon 12:15:35 PM 43.1019 -78.3711 287° West 282 325 15,800 -600 Descending Cleveland Center
Mon 12:16:35 PM 43.1225 -78.4728 286° West 282 325 15,300 -450 Descending Cleveland Center
Mon 12:17:35 PM 43.1408 -78.5744 284° West 282 325 14,900 -500 Descending Cleveland Center
Mon 12:18:35 PM 43.1636 -78.6761 287° West 282 325 14,300 -550 Descending Cleveland Center
Mon 12:19:35 PM 43.1839 -78.7781 285° West 282 325 13,800 -550 Descending Cleveland Center
Mon 12:20:35 PM 43.2022 -78.8803 284° West 282 325 13,200 -619 Descending Cleveland Center
Mon 12:21:12 PM 43.2167 -78.9167 299° West 280 322 12,800 -649 Descending Toronto Center

Login

Don't have an account? Register now (free) for customized features, flight alerts, and more!